createdAt,value
2023-02-14T00:01:10.957Z,5.78
2023-02-14T00:03:42.609Z,5.77
2023-02-14T00:06:17.296Z,5.73
2023-02-14T00:08:45.141Z,5.72
2023-02-14T00:11:14.930Z,5.69
2023-02-14T00:14:05.691Z,5.66
2023-02-14T00:16:51.725Z,5.64
2023-02-14T00:19:20.046Z,5.63
2023-02-14T00:21:50.888Z,5.63
2023-02-14T00:24:23.863Z,5.61
2023-02-14T00:26:51.689Z,5.61
2023-02-14T00:29:25.884Z,5.59
2023-02-14T00:31:52.855Z,5.60
2023-02-14T00:34:20.281Z,5.60
2023-02-14T00:36:47.346Z,5.60
2023-02-14T00:39:17.777Z,5.58
2023-02-14T00:41:45.163Z,5.59
2023-02-14T00:44:13.293Z,5.58
2023-02-14T00:46:40.815Z,5.58
2023-02-14T00:49:07.690Z,5.57
2023-02-14T00:51:34.519Z,5.56
2023-02-14T00:54:03.269Z,5.54
2023-02-14T00:56:33.046Z,5.54
2023-02-14T00:59:00.094Z,5.53
2023-02-14T01:01:27.017Z,5.52
2023-02-14T01:03:54.371Z,5.48
2023-02-14T01:06:21.261Z,5.47
2023-02-14T01:08:49.786Z,5.44
2023-02-14T01:11:20.504Z,5.41
2023-02-14T01:13:49.682Z,5.39
2023-02-14T01:16:22.506Z,5.36
2023-02-14T01:18:51.712Z,5.35
2023-02-14T01:21:29.352Z,5.29
2023-02-14T01:23:59.947Z,5.28
2023-02-14T01:26:28.355Z,5.26
2023-02-14T01:28:56.133Z,5.22
2023-02-14T01:31:26.814Z,5.19
2023-02-14T01:33:57.455Z,5.17
2023-02-14T01:36:44.338Z,5.11
2023-02-14T01:39:15.165Z,5.13
2023-02-14T01:41:50.153Z,5.09
2023-02-14T01:44:16.874Z,5.07
2023-02-14T01:46:45.938Z,5.05
2023-02-14T01:49:18.767Z,5.03
2023-02-14T01:51:53.440Z,5.01
2023-02-14T01:54:24.897Z,5.02
2023-02-14T01:57:00.196Z,4.99
2023-02-14T01:59:32.202Z,4.97
2023-02-14T02:01:59.678Z,4.96
2023-02-14T02:04:32.762Z,4.91
2023-02-14T02:07:05.811Z,4.89
2023-02-14T02:10:00.983Z,4.85
2023-02-14T02:12:30.716Z,4.87
2023-02-14T02:14:59.820Z,4.84
2023-02-14T02:17:52.228Z,4.80
2023-02-14T02:20:50.198Z,4.80
2023-02-14T02:23:43.616Z,4.79
2023-02-14T02:26:48.080Z,4.74
2023-02-14T02:29:55.777Z,4.70
2023-02-14T02:33:06.894Z,4.67
2023-02-14T02:35:52.827Z,4.67
2023-02-14T02:39:04.110Z,4.67
2023-02-14T02:41:40.097Z,4.67
2023-02-14T02:44:18.917Z,4.67
2023-02-14T02:47:04.213Z,4.68
2023-02-14T02:50:00.398Z,4.70
2023-02-14T02:52:58.266Z,4.66
2023-02-14T02:55:56.939Z,4.66
2023-02-14T02:58:58.997Z,4.62
2023-02-14T03:01:34.604Z,4.64
2023-02-14T03:04:24.364Z,4.64
2023-02-14T03:06:51.159Z,4.58
2023-02-14T03:09:20.918Z,4.59
2023-02-14T03:12:28.412Z,4.55
2023-02-14T03:15:27.115Z,4.56
2023-02-14T03:18:51.480Z,4.52
2023-02-14T03:21:47.113Z,4.50
2023-02-14T03:24:40.508Z,4.47
2023-02-14T03:27:22.603Z,4.47
2023-02-14T03:30:41.799Z,4.44
2023-02-14T03:33:39.414Z,4.45
2023-02-14T03:36:19.938Z,4.44
2023-02-14T03:39:00.417Z,4.42
2023-02-14T03:41:33.908Z,4.40
2023-02-14T03:44:10.073Z,4.37
2023-02-14T03:46:53.729Z,4.35
2023-02-14T03:49:26.742Z,4.33
2023-02-14T03:51:56.263Z,4.33
2023-02-14T03:54:25.965Z,4.31
2023-02-14T03:57:08.392Z,4.23
2023-02-14T03:59:35.748Z,4.26
2023-02-14T04:02:13.145Z,4.21
2023-02-14T04:04:45.558Z,4.20
2023-02-14T04:07:19.603Z,4.18
2023-02-14T04:09:46.988Z,4.19
2023-02-14T04:12:16.934Z,4.19
2023-02-14T04:14:45.135Z,4.19
2023-02-14T04:17:44.360Z,4.17
2023-02-14T04:20:11.285Z,4.16
2023-02-14T04:22:38.042Z,4.15
2023-02-14T04:25:05.370Z,4.13
2023-02-14T04:27:32.125Z,4.13
2023-02-14T04:29:59.002Z,4.12
2023-02-14T04:32:26.075Z,4.12
2023-02-14T04:34:53.384Z,4.12
2023-02-14T04:37:20.266Z,4.11
2023-02-14T04:39:47.112Z,4.11
2023-02-14T04:42:14.676Z,4.11
2023-02-14T04:44:41.804Z,4.10
2023-02-14T04:47:09.044Z,4.10
2023-02-14T04:49:36.485Z,4.09
2023-02-14T04:52:03.703Z,4.09
2023-02-14T04:54:30.810Z,4.06
2023-02-14T04:56:57.888Z,4.05
2023-02-14T04:59:25.244Z,4.03
2023-02-14T05:01:52.936Z,4.02
2023-02-14T05:04:20.297Z,4.01
2023-02-14T05:06:47.148Z,4.00
2023-02-14T05:09:13.946Z,3.99
2023-02-14T05:11:40.714Z,3.98
2023-02-14T05:14:07.862Z,3.97
2023-02-14T05:16:34.695Z,3.96
2023-02-14T05:19:01.551Z,3.94
2023-02-14T05:21:28.710Z,3.91
2023-02-14T05:23:55.508Z,3.89
2023-02-14T05:26:22.501Z,3.88
2023-02-14T05:28:49.313Z,3.86
2023-02-14T05:31:16.640Z,3.87
2023-02-14T05:33:43.500Z,3.85
2023-02-14T05:36:10.858Z,3.84
2023-02-14T05:38:37.674Z,3.83
2023-02-14T05:41:04.822Z,3.81
2023-02-14T05:43:32.224Z,3.80
2023-02-14T05:45:59.222Z,3.80
2023-02-14T05:48:26.100Z,3.79
2023-02-14T05:50:53.077Z,3.78
2023-02-14T05:53:19.952Z,3.76
2023-02-14T05:55:47.415Z,3.73
2023-02-14T05:58:14.382Z,3.71
2023-02-14T06:00:41.595Z,3.69
2023-02-14T06:03:08.720Z,3.68
2023-02-14T06:05:35.756Z,3.67
2023-02-14T06:08:02.853Z,3.66
2023-02-14T06:10:29.866Z,3.66
2023-02-14T06:12:56.858Z,3.66
2023-02-14T06:15:24.054Z,3.64
2023-02-14T06:17:56.331Z,3.61
2023-02-14T06:20:24.483Z,3.60
2023-02-14T06:22:52.001Z,3.61
2023-02-14T06:25:20.117Z,3.60
2023-02-14T06:27:49.293Z,3.60
2023-02-14T06:30:18.156Z,3.60
2023-02-14T06:32:45.511Z,3.60
2023-02-14T06:35:13.788Z,3.60
2023-02-14T06:37:42.133Z,3.60
2023-02-14T06:40:10.492Z,3.58
2023-02-14T06:42:38.054Z,3.57
2023-02-14T06:45:06.680Z,3.55
2023-02-14T06:47:35.119Z,3.54
2023-02-14T06:50:04.708Z,3.51
2023-02-14T06:52:35.340Z,3.49
2023-02-14T06:55:02.193Z,3.49
2023-02-14T06:57:29.043Z,3.47
2023-02-14T06:59:55.810Z,3.47
2023-02-14T07:02:24.889Z,3.49
2023-02-14T07:04:52.001Z,3.53
2023-02-14T07:07:18.802Z,3.57
2023-02-14T07:09:45.627Z,3.60
2023-02-14T07:12:12.426Z,3.64
2023-02-14T07:14:39.243Z,3.69
2023-02-14T07:17:06.098Z,3.73
2023-02-14T07:19:35.227Z,3.78
2023-02-14T07:22:03.088Z,3.82
2023-02-14T07:24:29.878Z,3.86
2023-02-14T07:26:56.672Z,3.91
2023-02-14T07:29:23.492Z,3.96
2023-02-14T07:31:50.399Z,3.99
2023-02-14T07:34:17.292Z,4.04
2023-02-14T07:36:44.168Z,4.09
2023-02-14T07:39:11.063Z,4.14
2023-02-14T07:41:38.097Z,4.22
2023-02-14T07:44:09.983Z,4.28
2023-02-14T07:46:36.884Z,4.35
2023-02-14T07:49:03.994Z,4.40
2023-02-14T07:51:30.872Z,4.47
2023-02-14T07:53:57.662Z,4.52
2023-02-14T07:56:24.480Z,4.55
2023-02-14T07:58:51.401Z,4.58
2023-02-14T08:01:19.176Z,4.63
2023-02-14T08:03:49.361Z,4.67
2023-02-14T08:06:17.825Z,4.72
2023-02-14T08:08:45.508Z,4.77
2023-02-14T08:11:12.449Z,4.84
2023-02-14T08:13:39.203Z,4.89
2023-02-14T08:16:06.511Z,4.96
2023-02-14T08:18:39.839Z,5.01
2023-02-14T08:21:11.098Z,5.06
2023-02-14T08:23:38.348Z,5.16
2023-02-14T08:26:05.784Z,5.21
2023-02-14T08:28:33.171Z,5.28
2023-02-14T08:31:02.869Z,5.33
2023-02-14T08:33:29.870Z,5.34
2023-02-14T08:35:56.707Z,5.44
2023-02-14T08:38:24.151Z,5.53
2023-02-14T08:40:50.971Z,5.59
2023-02-14T08:43:17.810Z,5.68
2023-02-14T08:45:45.017Z,5.75
2023-02-14T08:48:13.213Z,5.82
2023-02-14T08:50:40.796Z,5.90
2023-02-14T08:53:10.435Z,5.99
2023-02-14T08:55:39.093Z,6.09
2023-02-14T08:58:06.292Z,6.19
2023-02-14T09:00:33.866Z,6.28
2023-02-14T09:03:00.834Z,6.37
2023-02-14T09:05:27.836Z,6.48
2023-02-14T09:07:58.041Z,6.58
2023-02-14T09:10:25.398Z,6.67
2023-02-14T09:12:52.453Z,6.79
2023-02-14T09:15:19.466Z,6.90
2023-02-14T09:17:46.903Z,7.01
2023-02-14T09:20:15.600Z,7.11
2023-02-14T09:22:43.422Z,7.23
2023-02-14T09:25:10.382Z,7.32
2023-02-14T09:27:37.267Z,7.42
2023-02-14T09:30:06.610Z,7.56
2023-02-14T09:32:33.898Z,7.71
2023-02-14T09:35:00.992Z,7.86
2023-02-14T09:37:27.853Z,8.03
2023-02-14T09:39:54.678Z,8.16
2023-02-14T09:43:03.729Z,8.28
2023-02-14T09:45:33.359Z,8.45
2023-02-14T09:48:32.359Z,8.58
2023-02-14T09:51:05.743Z,8.74
2023-02-14T09:53:35.831Z,8.89
2023-02-14T09:56:20.727Z,9.03
2023-02-14T09:59:28.902Z,9.20
2023-02-14T10:02:13.082Z,9.37
2023-02-14T10:05:13.937Z,9.55
2023-02-14T10:07:59.451Z,9.73
2023-02-14T10:10:39.680Z,9.90
2023-02-14T10:13:46.566Z,10.08
2023-02-14T10:16:32.478Z,10.25
2023-02-14T10:19:24.183Z,10.40
2023-02-14T10:22:05.282Z,10.57
2023-02-14T10:24:49.053Z,10.73
2023-02-14T10:27:39.153Z,10.91
2023-02-14T10:30:19.597Z,11.10
2023-02-14T10:33:02.533Z,11.28
2023-02-14T10:35:44.409Z,11.46
2023-02-14T10:38:43.750Z,11.63
2023-02-14T10:41:24.868Z,11.82
2023-02-14T10:43:55.841Z,12.02
2023-02-14T10:46:33.850Z,12.19
2023-02-14T10:49:31.772Z,12.37
2023-02-14T10:52:08.032Z,12.58
2023-02-14T10:54:45.894Z,12.75
2023-02-14T10:57:51.296Z,12.91
2023-02-14T11:00:38.714Z,13.12
2023-02-14T11:03:09.351Z,13.27
2023-02-14T11:05:47.834Z,13.41
2023-02-14T11:08:40.733Z,13.54
2023-02-14T11:11:28.528Z,13.70
2023-02-14T11:13:55.352Z,13.88
2023-02-14T11:16:32.508Z,13.97
2023-02-14T11:19:14.415Z,14.10
2023-02-14T11:21:44.384Z,14.25
2023-02-14T11:24:38.751Z,14.34
2023-02-14T11:27:17.331Z,14.53
2023-02-14T11:29:52.269Z,14.69
2023-02-14T11:32:28.497Z,14.80
2023-02-14T11:35:07.031Z,14.92
2023-02-14T11:37:49.968Z,15.06
2023-02-14T11:40:43.160Z,15.21
2023-02-14T11:43:15.463Z,15.38
2023-02-14T11:45:48.321Z,15.49
2023-02-14T11:48:37.882Z,15.62
2023-02-14T11:51:09.089Z,15.79
2023-02-14T11:53:50.925Z,15.90
2023-02-14T11:56:21.261Z,16.08
2023-02-14T11:59:03.662Z,16.16
2023-02-14T12:01:33.690Z,16.30
2023-02-14T12:04:06.872Z,16.30
2023-02-14T12:06:36.551Z,16.46
2023-02-14T12:09:21.961Z,16.53
2023-02-14T12:11:59.585Z,16.68
2023-02-14T12:14:35.342Z,16.80
2023-02-14T12:17:21.297Z,16.95
2023-02-14T12:20:39.610Z,17.09
2023-02-14T12:23:24.239Z,17.29
2023-02-14T12:26:00.046Z,17.46
2023-02-14T12:28:38.518Z,17.67
2023-02-14T12:31:11.531Z,17.86
2023-02-14T12:33:39.715Z,18.08
2023-02-14T12:36:44.176Z,18.22
2023-02-14T12:40:11.705Z,18.49
2023-02-14T12:43:03.824Z,18.73
2023-02-14T12:46:05.597Z,19.00
2023-02-14T12:48:41.382Z,19.29
2023-02-14T12:51:13.943Z,19.53
2023-02-14T12:54:08.163Z,19.79
2023-02-14T12:57:32.200Z,20.19
2023-02-14T13:00:52.287Z,20.65
2023-02-14T13:03:49.481Z,21.09
2023-02-14T13:06:37.055Z,21.48
2023-02-14T13:09:37.182Z,21.84
2023-02-14T13:12:45.834Z,22.22
2023-02-14T13:15:25.797Z,22.63
2023-02-14T13:18:01.322Z,22.93
2023-02-14T13:20:50.056Z,23.25
2023-02-14T13:23:30.665Z,23.69
2023-02-14T13:26:15.984Z,24.12
2023-02-14T13:29:02.137Z,24.57
2023-02-14T13:31:30.194Z,25.03
2023-02-14T13:34:24.888Z,25.37
2023-02-14T13:36:52.806Z,25.81
2023-02-14T13:39:39.610Z,26.17
2023-02-14T13:42:07.376Z,26.65
2023-02-14T13:44:48.842Z,27.01
2023-02-14T13:47:22.062Z,27.38
2023-02-14T13:49:59.694Z,27.66
2023-02-14T13:52:42.308Z,27.91
2023-02-14T13:55:21.661Z,27.89
2023-02-14T13:58:01.957Z,27.27
2023-02-14T14:00:41.638Z,26.45
2023-02-14T14:03:17.897Z,25.62
2023-02-14T14:06:00.936Z,24.76
2023-02-14T14:08:30.665Z,24.11
2023-02-14T14:10:59.979Z,23.41
2023-02-14T14:13:42.007Z,22.66
2023-02-14T14:16:24.422Z,22.04
2023-02-14T14:18:54.156Z,21.57
2023-02-14T14:21:38.990Z,21.07
2023-02-14T14:24:35.083Z,20.44
2023-02-14T14:27:35.223Z,19.95
2023-02-14T14:30:16.816Z,19.57
2023-02-14T14:32:45.265Z,19.26
2023-02-14T14:35:24.532Z,18.88
2023-02-14T14:37:57.397Z,18.55
2023-02-14T14:40:26.075Z,18.29
2023-02-14T14:42:54.521Z,18.03
2023-02-14T14:45:28.342Z,17.77
2023-02-14T14:47:58.125Z,17.58
2023-02-14T14:50:34.304Z,17.35
2023-02-14T14:53:04.826Z,17.18
2023-02-14T14:55:36.246Z,16.99
2023-02-14T14:58:10.872Z,16.82
2023-02-14T15:00:42.390Z,16.68
2023-02-14T15:03:11.939Z,16.52
2023-02-14T15:05:42.855Z,16.39
2023-02-14T15:08:24.904Z,16.25
2023-02-14T15:11:02.296Z,16.14
2023-02-14T15:13:53.490Z,16.04
2023-02-14T15:16:29.434Z,16.19
2023-02-14T15:19:01.328Z,16.62
2023-02-14T15:21:28.407Z,17.18
2023-02-14T15:23:55.510Z,17.78
2023-02-14T15:26:31.562Z,18.40
2023-02-14T15:29:05.401Z,19.07
2023-02-14T15:31:38.316Z,19.70
2023-02-14T15:34:05.919Z,20.32
2023-02-14T15:36:34.910Z,20.83
2023-02-14T15:39:06.059Z,21.34
2023-02-14T15:41:32.927Z,21.82
2023-02-14T15:43:59.807Z,22.26
2023-02-14T15:46:36.393Z,22.67
2023-02-14T15:49:10.547Z,23.01
2023-02-14T15:51:38.987Z,23.32
2023-02-14T15:54:23.439Z,23.51
2023-02-14T15:56:52.903Z,23.76
2023-02-14T15:59:24.001Z,23.86
2023-02-14T16:02:01.717Z,23.89
2023-02-14T16:04:33.875Z,23.87
2023-02-14T16:07:03.554Z,23.61
2023-02-14T16:09:34.283Z,23.16
2023-02-14T16:12:33.848Z,22.51
2023-02-14T16:15:18.154Z,21.97
2023-02-14T16:17:45.618Z,21.54
2023-02-14T16:20:52.032Z,20.89
2023-02-14T16:23:28.590Z,20.39
2023-02-14T16:25:59.053Z,19.99
2023-02-14T16:28:30.324Z,19.48
2023-02-14T16:31:00.333Z,19.03
2023-02-14T16:33:30.526Z,18.60
2023-02-14T16:36:12.249Z,18.05
2023-02-14T16:38:44.486Z,17.67
2023-02-14T16:41:31.392Z,17.17
2023-02-14T16:43:58.512Z,16.84
2023-02-14T16:46:30.250Z,16.43
2023-02-14T16:48:57.654Z,16.08
2023-02-14T16:51:32.172Z,15.68
2023-02-14T16:54:02.954Z,15.35
2023-02-14T16:56:37.060Z,15.01
2023-02-14T16:59:04.386Z,14.72
2023-02-14T17:01:32.549Z,14.41
2023-02-14T17:04:00.089Z,14.17
2023-02-14T17:06:29.263Z,13.92
2023-02-14T17:08:58.750Z,13.72
2023-02-14T17:11:27.803Z,13.51
2023-02-14T17:13:55.125Z,13.35
2023-02-14T17:16:22.429Z,13.17
2023-02-14T17:18:51.618Z,12.99
2023-02-14T17:21:22.685Z,12.84
2023-02-14T17:23:49.999Z,12.73
2023-02-14T17:26:18.664Z,12.58
2023-02-14T17:28:46.401Z,12.46
2023-02-14T17:31:13.826Z,12.34
2023-02-14T17:33:40.785Z,12.23
2023-02-14T17:36:12.181Z,12.10
2023-02-14T17:38:39.910Z,12.01
2023-02-14T17:41:21.708Z,11.86
2023-02-14T17:43:50.493Z,11.79
2023-02-14T17:46:20.629Z,11.70
2023-02-14T17:48:48.952Z,11.60
2023-02-14T17:51:17.827Z,11.50
2023-02-14T17:53:44.708Z,11.42
2023-02-14T17:56:17.924Z,11.32
2023-02-14T17:58:47.556Z,11.24
2023-02-14T18:01:16.334Z,11.16
2023-02-14T18:03:43.286Z,11.10
2023-02-14T18:06:11.386Z,11.01
2023-02-14T18:08:43.389Z,10.90
2023-02-14T18:11:12.439Z,10.83
2023-02-14T18:13:39.687Z,10.76
2023-02-14T18:16:13.189Z,10.64
2023-02-14T18:18:40.444Z,10.57
2023-02-14T18:21:11.429Z,10.49
2023-02-14T18:23:38.950Z,10.42
2023-02-14T18:26:10.725Z,10.33
2023-02-14T18:28:38.449Z,10.25
2023-02-14T18:31:07.473Z,10.17
2023-02-14T18:33:35.133Z,10.10
2023-02-14T18:36:04.211Z,10.02
2023-02-14T18:38:31.206Z,9.95
2023-02-14T18:41:06.273Z,9.85
2023-02-14T18:43:33.629Z,9.80
2023-02-14T18:46:05.285Z,9.69
2023-02-14T18:48:32.927Z,9.63
2023-02-14T18:51:08.577Z,9.52
2023-02-14T18:53:36.739Z,9.46
2023-02-14T18:56:09.510Z,9.36
2023-02-14T18:58:37.261Z,9.30
2023-02-14T19:01:13.713Z,9.20
2023-02-14T19:03:41.412Z,9.16
2023-02-14T19:06:09.360Z,9.08
2023-02-14T19:08:39.061Z,8.99
2023-02-14T19:11:23.214Z,8.89
2023-02-14T19:13:53.616Z,8.84
2023-02-14T19:16:33.198Z,8.76
2023-02-14T19:19:02.357Z,8.73
2023-02-14T19:21:33.699Z,8.65
2023-02-14T19:24:03.002Z,8.61
2023-02-14T19:26:34.788Z,8.55
2023-02-14T19:29:04.995Z,8.49
2023-02-14T19:31:36.254Z,8.44
2023-02-14T19:34:05.159Z,8.38
2023-02-14T19:36:35.074Z,8.33
2023-02-14T19:39:02.086Z,8.21
2023-02-14T19:41:34.180Z,8.19
2023-02-14T19:44:04.440Z,8.12
2023-02-14T19:46:32.047Z,8.07
2023-02-14T19:48:59.767Z,8.01
2023-02-14T19:51:32.353Z,7.93
2023-02-14T19:54:02.056Z,7.87
2023-02-14T19:56:32.797Z,7.80
2023-02-14T19:59:00.145Z,7.74
2023-02-14T20:02:12.124Z,7.60
2023-02-14T20:04:39.303Z,7.58
2023-02-14T20:07:08.245Z,7.53
2023-02-14T20:09:35.495Z,7.50
2023-02-14T20:12:04.681Z,7.44
2023-02-14T20:14:50.246Z,7.41
2023-02-14T20:17:21.072Z,7.39
2023-02-14T20:19:48.799Z,7.35
2023-02-14T20:22:16.609Z,7.32
2023-02-14T20:24:43.473Z,7.29
2023-02-14T20:27:10.315Z,7.26
2023-02-14T20:29:39.591Z,7.23
2023-02-14T20:32:06.516Z,7.18
2023-02-14T20:34:33.483Z,7.15
2023-02-14T20:37:00.419Z,7.10
2023-02-14T20:39:33.317Z,7.06
2023-02-14T20:42:01.158Z,7.04
2023-02-14T20:44:28.386Z,7.02
2023-02-14T20:46:56.964Z,6.98
2023-02-14T20:49:26.294Z,6.94
2023-02-14T20:51:53.802Z,6.92
2023-02-14T20:54:24.122Z,6.87
2023-02-14T20:56:51.608Z,6.86
2023-02-14T20:59:28.709Z,6.82
2023-02-14T21:01:58.276Z,6.77
2023-02-14T21:04:25.964Z,6.73
2023-02-14T21:06:52.911Z,6.70
2023-02-14T21:09:20.676Z,6.68
2023-02-14T21:11:47.609Z,6.66
2023-02-14T21:14:14.469Z,6.64
2023-02-14T21:16:41.268Z,6.61
2023-02-14T21:19:08.105Z,6.58
2023-02-14T21:21:37.246Z,6.56
2023-02-14T21:24:10.007Z,6.54
2023-02-14T21:26:37.527Z,6.54
2023-02-14T21:29:05.681Z,6.51
2023-02-14T21:31:32.999Z,6.50
2023-02-14T21:34:02.625Z,6.47
2023-02-14T21:36:32.893Z,6.44
2023-02-14T21:39:00.419Z,6.44
2023-02-14T21:41:31.386Z,6.40
2023-02-14T21:44:00.792Z,6.39
2023-02-14T21:46:31.838Z,6.35
2023-02-14T21:49:33.517Z,6.34
2023-02-14T21:52:01.878Z,6.31
2023-02-14T21:54:28.757Z,6.26
2023-02-14T21:56:55.710Z,6.23
2023-02-14T21:59:22.538Z,6.21
2023-02-14T22:01:49.413Z,6.20
2023-02-14T22:04:16.266Z,6.19
2023-02-14T22:06:43.696Z,6.17
2023-02-14T22:09:13.899Z,6.15
2023-02-14T22:11:41.094Z,6.16
2023-02-14T22:14:08.540Z,6.15
2023-02-14T22:16:38.796Z,6.16
2023-02-14T22:19:07.152Z,6.15
2023-02-14T22:21:34.454Z,6.14
2023-02-14T22:24:01.649Z,6.13
2023-02-14T22:26:35.207Z,6.10
2023-02-14T22:29:02.974Z,6.07
2023-02-14T22:31:35.961Z,6.03
2023-02-14T22:34:05.527Z,6.02
2023-02-14T22:36:32.728Z,6.00
2023-02-14T22:38:59.559Z,5.98
2023-02-14T22:41:26.795Z,5.97
2023-02-14T22:43:54.294Z,5.94
2023-02-14T22:46:27.297Z,5.91
2023-02-14T22:48:55.573Z,5.90
2023-02-14T22:51:28.304Z,5.88
2023-02-14T22:53:58.566Z,5.89
2023-02-14T22:56:29.760Z,5.88
2023-02-14T22:59:04.606Z,5.88
2023-02-14T23:01:33.413Z,5.88
2023-02-14T23:04:02.447Z,5.87
2023-02-14T23:06:31.927Z,5.86
2023-02-14T23:08:59.132Z,5.84
2023-02-14T23:11:29.572Z,5.79
2023-02-14T23:14:15.197Z,5.81
2023-02-14T23:17:00.891Z,5.76
2023-02-14T23:19:50.476Z,5.71
2023-02-14T23:22:20.402Z,5.66
2023-02-14T23:24:49.757Z,5.64
2023-02-14T23:27:22.970Z,5.61
2023-02-14T23:29:49.810Z,5.60
2023-02-14T23:32:17.036Z,5.59
2023-02-14T23:34:45.117Z,5.58
2023-02-14T23:37:13.764Z,5.57
2023-02-14T23:39:41.482Z,5.57
2023-02-14T23:42:14.728Z,5.54
2023-02-14T23:44:43.933Z,5.55
2023-02-14T23:47:12.054Z,5.54
2023-02-14T23:49:41.231Z,5.54
2023-02-14T23:52:11.403Z,5.53
2023-02-14T23:54:39.371Z,5.54
2023-02-14T23:57:07.603Z,5.53
2023-02-14T23:59:34.754Z,5.52
